CDT,Max TemperatureF,Mean TemperatureF,Min TemperatureF,Max Dew PointF,MeanDew PointF,Min DewpointF,Max Humidity, Mean Humidity, Min Humidity, Max Sea Level PressureIn, Mean Sea Level PressureIn, Min Sea Level PressureIn, Max VisibilityMiles, Mean VisibilityMiles, Min VisibilityMiles, Max Wind SpeedMPH, Mean Wind SpeedMPH, Max Gust SpeedMPH,PrecipitationIn, CloudCover, Events, WindDirDegrees
2011-10-1,75,59,43,44,39,33,89,53,22,30.30,30.24,30.19,10,10,10,7,2,,0.00,0,,89
2011-10-2,79,60,42,44,41,37,86,56,23,30.30,30.22,30.15,10,10,10,8,2,,0.00,0,,153
2011-10-3,84,65,48,47,44,42,86,51,24,30.24,30.18,30.13,10,10,10,13,5,,0.00,0,,148
2011-10-4,86,68,51,46,44,39,80,48,20,30.25,30.17,30.12,10,10,10,12,5,16,0.00,0,,171
2011-10-5,84,64,46,46,43,40,83,52,22,30.18,30.12,30.04,10,10,10,16,4,,0.00,0,,150
2011-10-6,86,72,60,49,47,44,60,39,25,30.06,30.01,29.94,10,10,4,22,12,32,0.00,0,,151
2011-10-7,87,75,66,59,53,48,57,46,35,30.09,30.03,29.97,10,10,7,22,15,32,0.00,2,,154
2011-10-8,84,76,68,59,55,51,68,51,38,30.14,30.05,30.00,10,10,10,22,14,30,0.00,2,,140
2011-10-9,84,75,66,58,55,50,73,53,39,30.11,30.05,30.00,10,10,10,18,11,25,0.00,3,,140
2011-10-10,75,68,57,63,60,56,96,86,52,30.08,30.04,29.97,10,7,2,8,5,,0.35,6,Rain,175
2011-10-11,79,66,53,62,57,52,100,85,52,29.99,29.93,29.81,10,6,0,13,2,,0.01,3,Fog,161
2011-10-12,82,72,62,61,56,45,94,67,27,29.80,29.74,29.65,10,9,5,18,8,25,0.09,2,Rain-Thunderstorm,204
2011-10-13,78,64,51,50,43,33,83,53,20,29.94,29.87,29.82,10,10,10,22,9,26,0.00,0,,308
2011-10-14,79,62,46,47,39,30,89,53,17,30.07,29.97,29.88,10,10,10,12,4,18,0.00,0,,49
2011-10-15,81,62,43,50,42,35,89,51,23,30.15,30.04,29.94,10,10,10,13,4,16,0.00,0,,166
2011-10-16,88,74,57,52,48,42,67,47,28,29.99,29.92,29.87,10,10,10,16,10,16,0.00,0,,236
2011-10-17,75,60,48,51,42,36,82,56,33,29.97,29.86,29.71,10,10,2,25,10,32,0.11,3,Rain-Thunderstorm,34
2011-10-18,64,54,42,43,34,26,83,51,28,30.07,30.02,29.97,10,10,10,22,14,29,0.00,3,Rain,334
2011-10-19,57,47,37,31,23,15,68,45,19,30.09,30.05,30.02,10,10,10,25,10,36,0.00,0,,328
2011-10-20,62,46,30,35,27,22,86,56,26,30.16,30.10,30.05,10,10,10,13,5,,0.00,0,,322
2011-10-21,73,54,34,40,35,30,89,55,24,30.22,30.14,30.09,10,10,6,13,3,,0.00,0,,192
2011-10-22,75,57,39,53,45,37,89,66,36,30.14,30.06,29.98,10,10,10,7,2,,0.00,1,,94
2011-10-23,77,60,44,54,49,43,100,79,40,30.06,30.02,29.98,10,6,0,9,2,,0.00,2,Fog,189
2011-10-24,82,64,46,57,51,45,100,76,33,30.17,30.10,30.03,10,6,0,15,4,,0.01,0,Fog,168
2011-10-25,86,74,63,57,54,44,75,55,36,30.03,29.89,29.78,10,10,10,29,15,39,0.00,1,,195
2011-10-26,63,57,52,44,41,38,66,56,44,30.06,29.96,29.87,10,10,10,18,10,25,0.00,5,,14
2011-10-27,61,54,46,39,36,32,63,52,37,30.18,30.11,30.05,10,10,10,16,12,22,0.00,3,,16
2011-10-28,63,49,35,33,28,22,82,53,21,30.29,30.23,30.19,10,10,8,10,3,18,0.00,0,,308
2011-10-29,69,51,33,37,29,23,82,49,18,30.23,30.13,30.02,10,10,10,22,6,30,0.00,0,,187
2011-10-30,66,56,44,35,30,22,59,40,21,30.18,30.10,30.01,10,10,10,18,10,20,0.00,1,,248
2011-10-31,75,54,33,42,32,27,78,48,19,30.18,30.10,30.02,10,10,10,15,6,24,0.00,0,,180